Time;durP1;ratioP1;P1;durP2;ratioP2;P2;SDS_P1;SDS_P2;PMS_P1;PMS_P2;Temp;Humidity;BMP_temperature;BMP_pressure;BME280_temperature;BME280_humidity;BME280_pressure;Samples;Min_cycle;Max_cycle;Signal;HPM_P1;HPM_P2
2021/07/10 00:01:18;;;;;;;17.33;11.60;;;17.80;80.00;;;;;;5093299;28;20030;-76
2021/07/10 00:03:44;;;;;;;18.13;12.40;;;17.80;80.60;;;;;;5092532;28;20439;-76
2021/07/10 00:06:10;;;;;;;16.10;12.20;;;17.80;80.10;;;;;;5093210;28;20415;-76
2021/07/10 00:08:35;;;;;;;15.25;12.00;;;17.80;80.30;;;;;;5091620;28;20054;-76
2021/07/10 00:11:03;;;;;;;17.08;12.13;;;17.70;80.40;;;;;;5077982;28;20440;-76
2021/07/10 00:13:28;;;;;;;15.85;11.43;;;17.70;80.70;;;;;;5075673;28;20040;-76
2021/07/10 00:15:54;;;;;;;13.73;11.55;;;17.60;80.80;;;;;;5090126;28;20037;-76
2021/07/10 00:18:20;;;;;;;15.35;11.43;;;17.60;81.10;;;;;;5092559;28;20031;-76
2021/07/10 00:20:46;;;;;;;16.30;12.38;;;17.60;81.80;;;;;;5076625;28;20107;-76
2021/07/10 00:23:12;;;;;;;14.68;12.40;;;17.60;81.20;;;;;;5078228;28;20050;-76
2021/07/10 00:25:38;;;;;;;19.98;11.90;;;17.60;81.30;;;;;;5092385;28;20012;-76
2021/07/10 00:28:06;;;;;;;15.20;11.93;;;17.50;81.10;;;;;;5042107;28;20017;-76
2021/07/10 00:30:31;;;;;;;13.77;11.40;;;17.50;81.10;;;;;;5072937;28;20025;-76
2021/07/10 00:32:57;;;;;;;17.30;12.40;;;17.50;81.20;;;;;;5075528;28;20376;-76
2021/07/10 00:35:22;;;;;;;14.60;11.60;;;17.50;81.30;;;;;;5081015;28;20039;-76
2021/07/10 00:37:48;;;;;;;14.65;12.07;;;17.50;81.30;;;;;;5086993;28;20478;-76
2021/07/10 00:40:15;;;;;;;16.00;12.23;;;17.50;81.30;;;;;;5071432;28;20035;-76
2021/07/10 00:42:41;;;;;;;13.90;11.85;;;17.50;81.30;;;;;;5072666;28;20389;-76
2021/07/10 00:45:09;;;;;;;16.48;12.57;;;17.50;81.40;;;;;;5054822;28;20038;-76
2021/07/10 00:47:35;;;;;;;15.73;11.90;;;17.40;81.40;;;;;;5077673;28;20028;-76
2021/07/10 00:50:04;;;;;;;13.93;11.18;;;17.40;81.40;;;;;;5108268;28;20040;-76
2021/07/10 00:52:30;;;;;;;15.00;11.68;;;17.40;81.50;;;;;;5082963;28;20028;-76
2021/07/10 00:54:55;;;;;;;17.13;12.18;;;17.40;81.50;;;;;;5070918;28;20043;-76
2021/07/10 00:57:21;;;;;;;17.05;12.23;;;17.40;81.50;;;;;;5082563;28;20392;-76
2021/07/10 00:59:47;;;;;;;20.10;12.50;;;17.40;81.70;;;;;;5072528;28;20017;-76
2021/07/10 01:02:13;;;;;;;16.77;12.85;;;17.40;81.90;;;;;;5083033;28;20031;-76
2021/07/10 01:04:39;;;;;;;16.90;11.82;;;17.30;82.00;;;;;;5096104;28;20054;-76
2021/07/10 01:07:05;;;;;;;16.08;12.38;;;17.40;82.20;;;;;;5076912;28;20025;-76
2021/07/10 01:09:31;;;;;;;17.38;12.93;;;17.30;82.30;;;;;;5075777;28;20036;-76
2021/07/10 01:11:57;;;;;;;21.13;13.57;;;17.30;82.50;;;;;;5076061;28;20496;-76
2021/07/10 01:14:23;;;;;;;17.90;12.77;;;17.30;82.70;;;;;;5074333;28;20032;-76
2021/07/10 01:16:49;;;;;;;22.95;13.27;;;17.20;83.30;;;;;;5090151;28;20176;-76
2021/07/10 01:19:26;;;;;;;15.63;12.75;;;17.20;82.70;;;;;;5095313;28;20108;-76
2021/07/10 01:21:55;;;;;;;17.05;13.10;;;17.20;82.90;;;;;;5079235;28;20087;-76
2021/07/10 01:24:21;;;;;;;16.50;12.38;;;17.20;82.90;;;;;;5091627;28;20032;-76
2021/07/10 01:26:47;;;;;;;14.27;12.15;;;17.20;83.00;;;;;;5093889;28;20028;-76
2021/07/10 01:29:13;;;;;;;18.60;13.20;;;17.10;82.90;;;;;;5081619;28;20024;-76
2021/07/10 01:31:39;;;;;;;15.57;12.38;;;17.10;82.80;;;;;;5075232;28;20032;-76
2021/07/10 01:34:06;;;;;;;16.30;12.82;;;17.10;82.80;;;;;;5077361;28;20020;-76
2021/07/10 01:36:33;;;;;;;15.63;11.80;;;17.10;82.90;;;;;;5095616;28;20034;-76
2021/07/10 01:38:59;;;;;;;15.48;12.63;;;17.10;83.00;;;;;;5093391;28;20070;-76
2021/07/10 01:41:25;;;;;;;16.00;12.60;;;17.10;83.10;;;;;;5076734;28;20426;-76
2021/07/10 01:43:50;;;;;;;17.75;12.82;;;17.10;83.10;;;;;;5075292;28;20058;-76
2021/07/10 01:46:18;;;;;;;21.65;14.35;;;17.10;83.10;;;;;;5073803;28;20486;-76
2021/07/10 01:48:44;;;;;;;19.83;14.65;;;17.10;83.20;;;;;;5074815;28;20020;-76
2021/07/10 01:51:10;;;;;;;21.40;14.82;;;17.10;83.30;;;;;;5074849;28;20119;-76
2021/07/10 01:53:36;;;;;;;17.70;14.40;;;17.00;83.40;;;;;;5075087;28;20107;-76
2021/07/10 01:56:01;;;;;;;17.67;13.73;;;17.00;83.50;;;;;;5086787;28;20505;-76
2021/07/10 01:58:27;;;;;;;18.85;13.48;;;17.00;83.50;;;;;;5077033;28;20021;-76
2021/07/10 02:00:53;;;;;;;17.95;13.98;;;17.00;83.50;;;;;;5093103;28;20148;-76
2021/07/10 02:03:18;;;;;;;15.23;12.27;;;17.00;83.60;;;;;;5094693;28;20087;-76
2021/07/10 02:05:44;;;;;;;17.27;13.38;;;17.00;83.60;;;;;;5078188;28;20032;-76
2021/07/10 02:08:09;;;;;;;17.17;13.32;;;17.00;83.60;;;;;;5065165;28;20035;-76
2021/07/10 02:10:35;;;;;;;16.85;12.70;;;17.00;83.60;;;;;;5094496;28;20066;-76
2021/07/10 02:13:06;;;;;;;17.25;14.65;;;16.90;83.60;;;;;;5083132;28;20020;-76
2021/07/10 02:15:32;;;;;;;18.88;13.55;;;16.90;83.90;;;;;;5074262;28;20043;-76
2021/07/10 02:17:58;;;;;;;17.83;13.23;;;16.90;83.90;;;;;;5086451;28;20377;-76
2021/07/10 02:20:26;;;;;;;19.65;13.90;;;16.80;84.10;;;;;;5073158;28;20024;-76
2021/07/10 02:22:52;;;;;;;21.10;15.55;;;16.90;84.30;;;;;;5089330;28;20028;-76
2021/07/10 02:25:20;;;;;;;19.75;15.32;;;16.80;84.20;;;;;;5093298;28;20024;-76
2021/07/10 02:27:46;;;;;;;20.80;15.15;;;16.80;84.30;;;;;;5092760;28;20024;-76
2021/07/10 02:30:15;;;;;;;20.25;14.20;;;16.70;84.30;;;;;;5074609;28;20388;-76
2021/07/10 02:32:42;;;;;;;26.85;15.40;;;16.70;84.50;;;;;;5078958;28;20037;-76
2021/07/10 02:35:09;;;;;;;17.15;13.88;;;16.70;84.60;;;;;;5074570;28;20031;-76
2021/07/10 02:37:36;;;;;;;18.38;14.77;;;16.60;84.50;;;;;;5072894;28;20029;-76
2021/07/10 02:40:05;;;;;;;17.83;13.35;;;16.60;84.50;;;;;;5074082;28;20032;-76
2021/07/10 02:42:31;;;;;;;19.42;14.48;;;16.60;84.50;;;;;;5072726;28;20116;-76
2021/07/10 02:44:57;;;;;;;19.08;14.57;;;16.60;84.50;;;;;;5072222;28;20060;-76
2021/07/10 02:47:22;;;;;;;17.80;13.38;;;16.60;84.70;;;;;;5076682;28;20064;-76
2021/07/10 02:49:48;;;;;;;18.75;14.48;;;16.60;84.80;;;;;;5056085;28;20033;-76
2021/07/10 02:52:13;;;;;;;21.42;15.38;;;16.60;84.80;;;;;;5052799;28;20412;-76
2021/07/10 02:54:39;;;;;;;17.05;14.18;;;16.60;85.00;;;;;;5070691;28;20412;-76
2021/07/10 02:57:05;;;;;;;17.67;13.63;;;16.50;85.00;;;;;;5073744;28;20487;-76
2021/07/10 02:59:31;;;;;;;19.05;14.40;;;16.60;85.10;;;;;;5088553;28;20449;-76
2021/07/10 03:01:57;;;;;;;18.15;14.60;;;16.50;85.20;;;;;;5093799;28;20099;-76
2021/07/10 03:04:22;;;;;;;23.17;15.07;;;16.50;85.50;;;;;;5076420;28;20032;-76
2021/07/10 03:06:48;;;;;;;19.73;14.30;;;16.50;85.60;;;;;;5073579;28;20054;-76
2021/07/10 03:09:14;;;;;;;18.02;13.70;;;16.50;85.70;;;;;;5072557;28;20036;-76
2021/07/10 03:11:40;;;;;;;22.40;15.40;;;16.50;85.80;;;;;;5072728;28;20107;-76
2021/07/10 03:14:05;;;;;;;19.20;14.20;;;16.50;85.70;;;;;;5072101;28;20024;-76
2021/07/10 03:16:31;;;;;;;19.13;13.45;;;16.60;85.80;;;;;;5072060;28;20091;-76
2021/07/10 03:18:56;;;;;;;19.40;13.50;;;16.50;85.70;;;;;;5087939;28;20028;-76
2021/07/10 03:21:22;;;;;;;19.60;14.80;;;16.50;85.70;;;;;;5073748;28;20043;-76
2021/07/10 03:23:48;;;;;;;17.55;14.95;;;16.60;85.70;;;;;;5090556;28;20093;-76
2021/07/10 03:26:14;;;;;;;19.02;14.55;;;16.60;85.60;;;;;;5079553;28;20083;-76
2021/07/10 03:28:40;;;;;;;21.70;14.63;;;16.60;85.60;;;;;;5080926;28;20574;-76
2021/07/10 03:31:06;;;;;;;18.80;13.98;;;16.50;85.50;;;;;;5080631;28;20053;-76
2021/07/10 03:33:35;;;;;;;18.77;14.13;;;16.50;85.60;;;;;;5074807;28;20032;-76
2021/07/10 03:36:02;;;;;;;19.65;14.45;;;16.50;85.60;;;;;;5092437;28;20024;-76
2021/07/10 03:38:28;;;;;;;18.10;14.50;;;16.50;85.60;;;;;;5090370;28;20032;-76
2021/07/10 03:40:54;;;;;;;17.75;13.73;;;16.50;85.60;;;;;;5092107;28;20035;-76
2021/07/10 03:43:19;;;;;;;20.10;15.80;;;16.50;85.60;;;;;;5092318;28;20013;-76
2021/07/10 03:45:45;;;;;;;23.38;15.77;;;16.50;85.50;;;;;;5065809;28;20154;-76
2021/07/10 03:48:10;;;;;;;22.30;16.58;;;16.50;85.70;;;;;;5073089;28;20025;-76
2021/07/10 03:50:36;;;;;;;18.13;13.27;;;16.40;85.80;;;;;;5062430;28;20436;-76
2021/07/10 03:53:03;;;;;;;20.38;14.25;;;16.40;86.00;;;;;;5088057;28;20028;-76
2021/07/10 03:55:29;;;;;;;17.35;14.13;;;16.40;86.00;;;;;;5093112;28;20081;-76
2021/07/10 03:57:55;;;;;;;21.38;15.20;;;16.40;85.90;;;;;;5083398;28;20038;-76
2021/07/10 04:00:22;;;;;;;23.02;14.68;;;16.40;85.90;;;;;;5071800;28;20028;-76
2021/07/10 04:02:48;;;;;;;21.83;14.85;;;16.40;86.00;;;;;;5078912;28;20028;-76
2021/07/10 04:05:13;;;;;;;20.70;15.63;;;16.40;86.00;;;;;;5080814;28;20025;-76
2021/07/10 04:07:40;;;;;;;23.70;16.80;;;16.50;86.10;;;;;;5072114;28;20107;-75
2021/07/10 04:10:08;;;;;;;17.92;14.98;;;16.50;86.00;;;;;;5071586;28;20033;-76
2021/07/10 04:12:33;;;;;;;21.05;15.55;;;16.50;86.10;;;;;;5071511;28;20028;-76
2021/07/10 04:15:00;;;;;;;26.52;16.55;;;16.50;86.10;;;;;;5071450;28;20123;-76
2021/07/10 04:17:32;;;;;;;21.08;16.08;;;16.60;86.20;;;;;;5071437;28;20409;-76
2021/07/10 04:19:59;;;;;;;25.23;15.30;;;16.70;86.40;;;;;;5054450;28;20142;-76
2021/07/10 04:22:24;;;;;;;20.67;14.80;;;16.70;86.30;;;;;;5072687;28;20032;-76
2021/07/10 04:24:51;;;;;;;24.25;16.05;;;16.70;86.30;;;;;;5079546;28;20182;-76
2021/07/10 04:27:17;;;;;;;25.58;16.40;;;16.70;86.20;;;;;;5072237;28;20024;-76
2021/07/10 04:29:45;;;;;;;20.42;15.23;;;16.70;86.20;;;;;;5072774;28;20392;-76
2021/07/10 04:32:12;;;;;;;27.87;16.23;;;16.70;86.40;;;;;;5090737;28;20032;-76
2021/07/10 04:34:37;;;;;;;19.92;16.27;;;16.80;87.10;;;;;;5084880;28;20286;-76
2021/07/10 04:37:03;;;;;;;21.58;15.10;;;16.80;86.60;;;;;;5074790;28;20042;-76
2021/07/10 04:39:29;;;;;;;23.30;15.57;;;16.80;86.60;;;;;;5074635;28;20036;-76
2021/07/10 04:41:54;;;;;;;19.95;15.45;;;16.80;86.70;;;;;;5090742;28;20380;-76
2021/07/10 04:44:20;;;;;;;20.17;14.88;;;16.80;86.70;;;;;;5076102;28;20058;-76
2021/07/10 04:46:46;;;;;;;21.27;16.33;;;16.80;86.80;;;;;;5090600;28;20063;-76
2021/07/10 04:49:11;;;;;;;21.33;14.82;;;16.80;86.90;;;;;;5084994;28;20372;-76
2021/07/10 04:51:37;;;;;;;19.35;14.48;;;16.80;86.90;;;;;;5076090;28;20116;-76
2021/07/10 04:54:03;;;;;;;24.05;16.38;;;16.90;86.90;;;;;;5075787;28;20025;-76
2021/07/10 04:56:28;;;;;;;22.13;15.82;;;16.90;86.90;;;;;;5074783;28;20024;-76
2021/07/10 04:58:54;;;;;;;19.70;16.42;;;16.90;86.80;;;;;;5075755;28;20064;-76
2021/07/10 05:01:19;;;;;;;24.15;14.95;;;17.00;87.40;;;;;;5076030;28;20488;-76
2021/07/10 05:03:45;;;;;;;17.15;13.80;;;17.00;86.60;;;;;;5075990;28;20051;-76
2021/07/10 05:06:11;;;;;;;18.15;14.18;;;17.00;86.60;;;;;;5084576;28;20047;-76
2021/07/10 05:08:36;;;;;;;22.20;15.02;;;17.10;86.60;;;;;;5087754;28;20032;-76
2021/07/10 05:11:02;;;;;;;21.73;16.27;;;17.10;86.50;;;;;;5075317;28;20473;-76
2021/07/10 05:13:28;;;;;;;19.25;16.02;;;17.20;86.50;;;;;;5073932;28;20473;-76
2021/07/10 05:15:54;;;;;;;20.02;16.00;;;17.30;86.50;;;;;;5073825;28;20147;-76
2021/07/10 05:18:19;;;;;;;22.20;15.65;;;17.40;86.50;;;;;;5075915;28;20024;-76
2021/07/10 05:20:46;;;;;;;21.48;14.35;;;17.50;86.30;;;;;;5073893;28;20025;-76
2021/07/10 05:23:12;;;;;;;24.70;16.15;;;17.60;86.00;;;;;;5074134;28;20021;-76
2021/07/10 05:25:38;;;;;;;20.75;15.70;;;17.70;85.80;;;;;;5060485;28;20022;-75
2021/07/10 05:28:04;;;;;;;17.80;15.63;;;17.80;85.70;;;;;;5074322;28;20473;-76
2021/07/10 05:30:29;;;;;;;19.73;15.65;;;17.80;85.40;;;;;;5085091;28;20470;-76
2021/07/10 05:32:55;;;;;;;27.17;16.98;;;17.90;85.30;;;;;;5074006;28;20028;-76
2021/07/10 05:35:22;;;;;;;21.90;16.33;;;18.00;85.10;;;;;;5075416;28;20024;-76
2021/07/10 05:37:48;;;;;;;22.73;15.88;;;18.00;84.90;;;;;;5075335;28;20017;-76
2021/07/10 05:40:15;;;;;;;24.63;14.90;;;18.10;84.80;;;;;;5074385;28;20497;-76
2021/07/10 05:42:41;;;;;;;19.40;16.70;;;18.20;84.90;;;;;;5076372;28;20040;-76
2021/07/10 05:45:09;;;;;;;20.30;17.85;;;18.10;84.80;;;;;;5063667;28;20085;-76
2021/07/10 05:47:35;;;;;;;20.67;17.23;;;18.20;85.00;;;;;;5093176;28;20085;-75
2021/07/10 05:50:02;;;;;;;23.33;17.30;;;18.20;84.70;;;;;;5081102;28;20056;-75
2021/07/10 05:52:28;;;;;;;21.25;16.92;;;18.30;84.50;;;;;;5073516;28;20059;-75
2021/07/10 05:54:54;;;;;;;24.65;17.77;;;18.40;84.40;;;;;;5082398;28;20485;-75
2021/07/10 05:57:19;;;;;;;21.40;18.42;;;18.50;83.90;;;;;;5094257;28;20028;-76
2021/07/10 05:59:45;;;;;;;25.55;19.02;;;18.50;83.70;;;;;;5093292;28;20468;-75
2021/07/10 06:02:11;;;;;;;23.42;17.67;;;18.60;83.80;;;;;;5093759;28;20024;-75
2021/07/10 06:04:36;;;;;;;30.10;22.10;;;18.70;83.80;;;;;;5076344;28;20149;-75
2021/07/10 06:07:03;;;;;;;25.88;19.77;;;18.80;83.50;;;;;;5074658;28;20082;-75
2021/07/10 06:09:29;;;;;;;28.35;20.45;;;18.90;83.10;;;;;;5074179;28;20046;-75
2021/07/10 06:11:56;;;;;;;24.00;18.42;;;19.00;82.90;;;;;;5074633;28;20546;-75
2021/07/10 06:14:21;;;;;;;28.40;19.55;;;19.10;82.90;;;;;;5072943;28;20408;-75
2021/07/10 06:16:47;;;;;;;29.70;21.65;;;19.20;82.60;;;;;;5094184;28;20048;-75
2021/07/10 06:19:13;;;;;;;25.58;19.83;;;19.30;82.40;;;;;;5093597;28;20487;-75
2021/07/10 06:21:38;;;;;;;29.15;22.10;;;19.40;82.10;;;;;;5090209;28;20039;-75
2021/07/10 06:24:04;;;;;;;28.92;22.13;;;19.50;81.30;;;;;;5089287;28;20054;-75
2021/07/10 06:26:30;;;;;;;33.58;20.50;;;19.60;80.80;;;;;;5057920;28;20033;-75
2021/07/10 06:28:56;;;;;;;28.08;19.80;;;19.60;80.50;;;;;;5058654;28;20086;-78
2021/07/10 06:31:21;;;;;;;26.63;19.45;;;19.70;80.20;;;;;;5073531;28;20037;-77
2021/07/10 06:33:47;;;;;;;31.85;22.42;;;19.90;80.00;;;;;;5074423;28;20119;-77
2021/07/10 06:36:14;;;;;;;27.55;21.05;;;20.00;79.80;;;;;;5056236;28;20035;-76
2021/07/10 06:38:40;;;;;;;24.73;19.50;;;20.00;80.10;;;;;;5093467;28;20126;-77
2021/07/10 06:41:06;;;;;;;26.75;20.75;;;20.00;80.20;;;;;;5093338;28;20095;-77
2021/07/10 06:43:32;;;;;;;29.55;21.42;;;20.10;80.20;;;;;;5087811;28;20032;-77
2021/07/10 06:45:58;;;;;;;31.33;22.35;;;20.10;80.10;;;;;;5094556;28;20037;-77
2021/07/10 06:48:24;;;;;;;28.20;22.75;;;20.20;80.00;;;;;;5079051;28;20492;-77
2021/07/10 06:50:51;;;;;;;30.02;22.58;;;20.20;80.10;;;;;;5073914;28;20116;-77
2021/07/10 06:53:22;;;;;;;41.58;24.45;;;20.30;80.30;;;;;;5086306;28;20139;-77
2021/07/10 06:55:52;;;;;;;32.40;22.95;;;20.40;79.40;;;;;;5072914;28;20040;-77
2021/07/10 06:58:18;;;;;;;30.75;21.35;;;20.50;78.40;;;;;;5086465;28;20506;-77
2021/07/10 07:00:46;;;;;;;34.30;22.75;;;20.60;78.00;;;;;;5072702;28;20437;-76
2021/07/10 07:03:11;;;;;;;35.80;23.45;;;20.70;77.70;;;;;;5079603;28;20350;-77
2021/07/10 07:05:37;;;;;;;34.78;24.00;;;20.70;77.20;;;;;;5072447;28;20120;-77
2021/07/10 07:08:03;;;;;;;41.25;25.88;;;20.70;77.20;;;;;;5090000;28;20043;-77
2021/07/10 07:10:29;;;;;;;33.97;22.27;;;20.70;76.70;;;;;;5072303;28;20039;-76
2021/07/10 07:12:54;;;;;;;38.80;24.52;;;20.80;76.50;;;;;;5093657;28;20028;-76
2021/07/10 07:15:20;;;;;;;31.77;23.00;;;20.80;76.90;;;;;;5079844;28;20082;-77
2021/07/10 07:17:46;;;;;;;32.13;22.65;;;20.90;77.60;;;;;;5073737;28;20114;-76
2021/07/10 07:20:14;;;;;;;34.17;23.38;;;21.00;77.10;;;;;;5072426;28;20024;-76
2021/07/10 07:22:43;;;;;;;40.35;24.88;;;21.00;77.00;;;;;;5064518;28;20032;-76
2021/07/10 07:25:09;;;;;;;35.03;24.83;;;21.00;76.60;;;;;;5056030;28;20032;-75
2021/07/10 07:27:35;;;;;;;34.90;21.98;;;21.10;76.70;;;;;;5073343;28;20033;-76
2021/07/10 07:30:01;;;;;;;28.77;21.77;;;21.10;75.70;;;;;;5073486;28;20039;-76
2021/07/10 07:32:27;;;;;;;29.73;21.77;;;21.20;75.10;;;;;;5079720;28;20441;-76
2021/07/10 07:34:53;;;;;;;28.98;22.13;;;21.20;74.40;;;;;;5078638;28;20029;-76
2021/07/10 07:37:18;;;;;;;32.05;22.33;;;21.30;74.00;;;;;;5075462;28;20031;-78
2021/07/10 07:39:46;;;;;;;31.88;22.02;;;21.30;72.70;;;;;;5092202;28;20547;-78
2021/07/10 07:42:14;;;;;;;32.30;23.33;;;21.40;72.70;;;;;;5072177;28;20531;-83
2021/07/10 07:44:40;;;;;;;35.47;23.50;;;21.40;72.90;;;;;;5073040;28;20032;-82
2021/07/10 07:47:08;;;;;;;33.72;21.65;;;21.40;72.70;;;;;;5072507;28;20038;-83
2021/07/10 07:49:33;;;;;;;33.63;23.58;;;21.50;72.70;;;;;;5080140;28;20035;-82
2021/07/10 07:51:59;;;;;;;30.02;22.75;;;21.60;72.60;;;;;;5072452;28;20107;-83
2021/07/10 07:54:27;;;;;;;31.77;22.55;;;21.70;72.30;;;;;;5054820;28;20032;-82
2021/07/10 07:56:53;;;;;;;35.33;24.42;;;21.90;72.00;;;;;;5071465;28;20021;-83
2021/07/10 07:59:19;;;;;;;32.17;22.45;;;22.00;71.70;;;;;;5071473;28;20028;-84
2021/07/10 08:01:44;;;;;;;31.50;21.80;;;22.10;71.60;;;;;;5073129;28;20036;-84
2021/07/10 08:04:10;;;;;;;39.92;22.75;;;22.20;71.10;;;;;;5072099;28;20035;-84
2021/07/10 08:06:35;;;;;;;33.92;22.60;;;22.30;70.50;;;;;;5072033;28;20476;-84
2021/07/10 08:09:01;;;;;;;31.95;22.95;;;22.40;70.20;;;;;;5055030;28;20039;-83
2021/07/10 08:11:27;;;;;;;27.95;22.13;;;22.40;70.10;;;;;;5092948;28;20032;-83
2021/07/10 08:13:53;;;;;;;30.58;20.88;;;22.40;69.80;;;;;;5097256;28;20067;-85
2021/07/10 08:16:19;;;;;;;27.27;19.63;;;22.40;70.00;;;;;;5097109;28;20047;-84
2021/07/10 08:18:44;;;;;;;31.23;20.52;;;22.40;70.00;;;;;;5092769;28;20021;-85
2021/07/10 08:21:10;;;;;;;32.33;20.95;;;22.40;70.50;;;;;;5075826;28;20036;-85
2021/07/10 08:23:36;;;;;;;28.98;21.35;;;22.40;69.70;;;;;;5093775;28;20028;-85
2021/07/10 08:26:02;;;;;;;25.90;19.52;;;22.40;69.30;;;;;;5096975;28;20111;-85
2021/07/10 08:28:28;;;;;;;28.75;18.92;;;22.40;69.00;;;;;;5078209;28;20039;-85
2021/07/10 08:30:53;;;;;;;26.80;18.13;;;22.50;69.40;;;;;;5076870;28;20028;-85
2021/07/10 08:33:19;;;;;;;20.85;14.60;;;22.60;70.00;;;;;;5058798;28;20052;-82
2021/07/10 08:35:45;;;;;;;24.58;15.85;;;22.60;68.10;;;;;;5075367;28;20052;-82
2021/07/10 08:38:10;;;;;;;19.05;14.43;;;22.60;67.70;;;;;;5075531;28;20032;-83
2021/07/10 08:40:36;;;;;;;17.40;11.80;;;22.70;67.80;;;;;;5075034;28;20032;-82
2021/07/10 08:43:02;;;;;;;14.48;11.00;;;22.80;67.30;;;;;;5076619;28;20096;-82
2021/07/10 08:45:33;;;;;;;12.85;9.82;;;22.80;67.90;;;;;;5058613;28;20024;-83
2021/07/10 08:48:00;;;;;;;16.25;11.25;;;23.00;67.10;;;;;;5094216;28;20046;-83
2021/07/10 08:50:27;;;;;;;15.75;11.10;;;23.10;66.80;;;;;;5095336;28;20550;-82
2021/07/10 08:52:53;;;;;;;17.98;11.85;;;23.10;66.80;;;;;;5078077;28;20032;-82
2021/07/10 08:55:19;;;;;;;15.98;11.68;;;23.20;66.20;;;;;;5079403;28;20091;-83
2021/07/10 08:57:45;;;;;;;18.90;14.07;;;23.20;65.80;;;;;;5079839;28;20504;-83
2021/07/10 09:00:17;;;;;;;20.02;14.15;;;23.20;66.10;;;;;;5075955;28;20063;-82
2021/07/10 09:02:46;;;;;;;22.23;16.38;;;23.30;66.60;;;;;;5093619;28;20545;-82
2021/07/10 09:05:13;;;;;;;20.23;14.45;;;23.30;66.60;;;;;;5094933;28;20031;-82
2021/07/10 09:08:22;;;;;;;20.13;13.20;;;23.30;66.60;;;;;;5055696;28;20063;-82
2021/07/10 09:11:01;;;;;;;23.42;15.13;;;23.30;66.20;;;;;;5063147;28;20400;-82
2021/07/10 09:13:39;;;;;;;18.08;13.07;;;23.20;66.20;;;;;;5077845;28;20039;-83
2021/07/10 09:16:14;;;;;;;22.50;13.00;;;23.20;66.50;;;;;;5078154;28;20482;-84
2021/07/10 09:18:46;;;;;;;19.50;12.70;;;23.20;66.60;;;;;;5073738;28;20085;-83
2021/07/10 09:21:14;;;;;;;19.15;14.52;;;23.20;66.50;;;;;;5074617;28;20036;-83
2021/07/10 09:23:44;;;;;;;32.88;17.20;;;23.30;66.50;;;;;;5081524;28;20039;-83
2021/07/10 09:26:25;;;;;;;24.85;17.88;;;23.40;66.40;;;;;;5065726;28;20028;-82
2021/07/10 09:29:11;;;;;;;20.58;14.88;;;23.40;66.80;;;;;;5077861;28;20108;-82
2021/07/10 09:31:40;;;;;;;21.92;15.77;;;23.40;66.80;;;;;;5059538;28;20055;-82
2021/07/10 09:34:13;;;;;;;26.13;18.27;;;23.40;66.90;;;;;;5075135;28;20068;-81
2021/07/10 09:36:51;;;;;;;21.85;14.13;;;23.30;66.60;;;;;;5071495;28;20504;-80
2021/07/10 09:39:18;;;;;;;19.80;14.07;;;23.30;66.70;;;;;;5072353;28;20028;-80
2021/07/10 09:41:43;;;;;;;19.90;13.57;;;23.30;66.70;;;;;;5073144;28;20121;-80
2021/07/10 09:44:12;;;;;;;16.83;11.98;;;23.30;67.00;;;;;;5067529;28;20460;-80
2021/07/10 09:46:38;;;;;;;19.05;12.02;;;23.30;66.70;;;;;;5083893;28;20028;-80
2021/07/10 09:49:25;;;;;;;15.32;10.63;;;23.30;66.70;;;;;;5068537;28;20055;-79
2021/07/10 09:52:16;;;;;;;19.23;11.32;;;23.20;65.70;;;;;;5074942;28;20520;-80
2021/07/10 09:54:44;;;;;;;17.00;12.07;;;23.30;66.40;;;;;;5067579;28;20028;-79
2021/07/10 09:57:10;;;;;;;15.77;11.40;;;23.40;66.80;;;;;;5073865;28;20108;-79
2021/07/10 09:59:53;;;;;;;14.90;10.77;;;23.50;68.00;;;;;;5079093;28;20525;-79
2021/07/10 10:02:28;;;;;;;13.25;9.55;;;23.60;66.80;;;;;;5066062;28;20025;-80
2021/07/10 10:05:07;;;;;;;16.05;10.95;;;23.80;65.60;;;;;;5067116;28;20078;-80
2021/07/10 10:07:50;;;;;;;15.35;10.00;;;24.00;64.80;;;;;;5072474;28;20489;-79
2021/07/10 10:10:28;;;;;;;16.58;10.30;;;24.10;64.00;;;;;;5060193;28;20074;-81
2021/07/10 10:13:09;;;;;;;11.80;10.10;;;24.30;63.20;;;;;;5073440;28;20021;-80
2021/07/10 10:15:49;;;;;;;13.27;9.27;;;24.50;61.90;;;;;;5076180;28;20282;-80
2021/07/10 10:18:20;;;;;;;15.95;10.15;;;24.70;62.80;;;;;;5089366;28;20050;-81
2021/07/10 10:20:47;;;;;;;16.95;10.60;;;24.90;61.00;;;;;;5080302;28;20025;-81
2021/07/10 10:23:14;;;;;;;12.95;8.98;;;25.10;60.50;;;;;;5071628;28;20039;-81
2021/07/10 10:25:41;;;;;;;14.82;9.02;;;25.20;59.20;;;;;;5063111;28;20090;-81
2021/07/10 10:28:15;;;;;;;13.75;9.05;;;25.10;58.50;;;;;;5071670;28;20031;-80
2021/07/10 10:30:41;;;;;;;12.43;8.05;;;24.90;59.10;;;;;;5074137;28;20028;-81
2021/07/10 10:33:09;;;;;;;11.55;8.63;;;24.70;60.10;;;;;;5074714;28;20162;-81
2021/07/10 10:35:35;;;;;;;10.38;7.82;;;24.50;61.20;;;;;;5074601;28;20067;-81
2021/07/10 10:38:01;;;;;;;9.90;6.80;;;24.40;61.50;;;;;;5074123;28;20061;-80
2021/07/10 10:40:28;;;;;;;10.02;7.40;;;24.40;61.80;;;;;;5069513;28;20024;-81
2021/07/10 10:42:57;;;;;;;8.70;6.88;;;24.30;61.90;;;;;;5072359;28;20059;-82
2021/07/10 10:45:27;;;;;;;12.85;7.30;;;24.20;62.30;;;;;;5087308;28;20032;-80
2021/07/10 10:47:52;;;;;;;11.10;7.05;;;24.30;62.40;;;;;;5094286;28;20034;-80
2021/07/10 10:50:25;;;;;;;10.68;7.75;;;24.50;61.60;;;;;;5073040;28;20465;-80
2021/07/10 10:52:53;;;;;;;11.27;6.90;;;24.80;60.60;;;;;;5074117;28;20112;-80
2021/07/10 10:55:38;;;;;;;9.52;7.07;;;25.10;59.40;;;;;;5073274;28;20060;-80
2021/07/10 10:58:10;;;;;;;11.55;6.03;;;25.50;58.40;;;;;;5073951;28;20033;-80
2021/07/10 11:00:38;;;;;;;7.22;5.88;;;25.70;58.20;;;;;;5072122;28;20029;-80
2021/07/10 11:03:08;;;;;;;7.50;6.10;;;25.80;58.50;;;;;;5073903;28;20017;-80
2021/07/10 11:05:33;;;;;;;9.68;6.22;;;25.90;57.40;;;;;;5074053;28;20104;-80
2021/07/10 11:08:18;;;;;;;8.43;5.93;;;26.00;57.30;;;;;;5072767;28;20123;-80
2021/07/10 11:10:53;;;;;;;10.07;7.05;;;26.20;57.20;;;;;;5073839;28;20028;-80
2021/07/10 11:13:57;;;;;;;9.30;6.13;;;26.30;56.20;;;;;;5074016;28;20032;-80
2021/07/10 11:16:22;;;;;;;6.55;5.55;;;26.30;56.00;;;;;;5041090;28;20051;-80
2021/07/10 11:18:48;;;;;;;7.38;5.78;;;26.20;56.10;;;;;;5052484;28;20029;-80
2021/07/10 11:21:48;;;;;;;8.35;5.07;;;26.30;56.00;;;;;;5053767;28;20021;-80
2021/07/10 11:24:22;;;;;;;8.93;5.15;;;26.20;55.70;;;;;;5051123;28;20092;-80
2021/07/10 11:26:54;;;;;;;7.93;4.53;;;26.00;56.10;;;;;;5053482;28;20021;-80
2021/07/10 11:29:33;;;;;;;6.70;4.53;;;25.70;55.30;;;;;;5053557;28;20029;-80
2021/07/10 11:32:11;;;;;;;6.20;4.55;;;25.70;55.30;;;;;;5052480;28;20040;-80
2021/07/10 11:34:57;;;;;;;5.20;4.18;;;25.70;54.10;;;;;;5066073;28;20488;-80
2021/07/10 11:37:24;;;;;;;4.97;3.95;;;25.70;55.40;;;;;;5072084;28;20126;-80
2021/07/10 11:39:53;;;;;;;6.80;4.30;;;25.70;55.20;;;;;;5073227;28;20017;-80
2021/07/10 11:42:19;;;;;;;5.53;3.88;;;25.90;55.00;;;;;;5073325;28;20031;-80
2021/07/10 11:44:47;;;;;;;7.20;3.85;;;26.10;55.60;;;;;;5072079;28;20025;-80
2021/07/10 11:47:39;;;;;;;4.85;3.70;;;26.30;52.70;;;;;;5071968;28;20021;-80
2021/07/10 11:50:14;;;;;;;3.50;3.20;;;26.50;52.50;;;;;;5066832;28;20109;-80
2021/07/10 11:52:39;;;;;;;7.63;4.00;;;26.60;50.60;;;;;;5072002;28;20489;-80
2021/07/10 11:55:09;;;;;;;3.70;3.20;;;26.50;50.40;;;;;;5073287;28;20035;-80
2021/07/10 11:57:37;;;;;;;4.93;2.97;;;26.50;51.80;;;;;;5072329;28;20020;-80
2021/07/10 12:00:10;;;;;;;5.05;3.35;;;26.60;50.80;;;;;;5072884;28;20108;-80
2021/07/10 12:02:36;;;;;;;5.75;3.10;;;26.60;51.30;;;;;;5073537;28;20033;-80
2021/07/10 12:05:15;;;;;;;3.95;3.30;;;26.70;52.50;;;;;;5080919;28;20042;-80
2021/07/10 12:07:46;;;;;;;6.45;3.00;;;26.80;51.20;;;;;;5092311;28;20066;-80
2021/07/10 12:10:24;;;;;;;3.10;2.80;;;26.80;50.80;;;;;;5093710;28;20388;-80
2021/07/10 12:12:59;;;;;;;6.07;3.10;;;26.70;49.80;;;;;;5076713;28;20025;-80
2021/07/10 12:15:30;;;;;;;5.68;3.20;;;26.80;50.30;;;;;;5073120;28;20064;-80
2021/07/10 12:17:58;;;;;;;5.30;3.33;;;26.90;51.00;;;;;;5078611;28;20384;-80
2021/07/10 12:20:30;;;;;;;4.63;2.80;;;26.90;48.40;;;;;;5093588;28;20036;-80
2021/07/10 12:22:57;;;;;;;4.50;2.78;;;26.90;48.80;;;;;;5093385;28;20031;-80
2021/07/10 12:25:28;;;;;;;4.80;2.85;;;26.80;49.60;;;;;;5093533;28;20036;-80
2021/07/10 12:28:03;;;;;;;5.78;3.15;;;26.80;50.10;;;;;;5051723;28;20120;-80
2021/07/10 12:30:50;;;;;;;4.80;3.30;;;26.90;49.60;;;;;;5052954;28;20025;-80
2021/07/10 12:33:32;;;;;;;4.27;2.87;;;26.90;49.80;;;;;;5052972;28;20021;-80
2021/07/10 12:36:30;;;;;;;4.22;3.05;;;26.80;49.40;;;;;;5052155;28;20025;-80